sensor_id;sensor_type;location;lat;lon;timestamp;temperature;humidity
19493;DHT22;9887;54.366;10.958;2022-10-16T00:00:51;14.10;99.90
19493;DHT22;9887;54.366;10.958;2022-10-16T00:03:19;14.10;99.90
19493;DHT22;9887;54.366;10.958;2022-10-16T00:05:51;14.00;99.90
19493;DHT22;9887;54.366;10.958;2022-10-16T00:08:19;14.00;99.90
19493;DHT22;9887;54.366;10.958;2022-10-16T00:10:47;13.90;99.90
19493;DHT22;9887;54.366;10.958;2022-10-16T00:13:15;13.90;99.90
19493;DHT22;9887;54.366;10.958;2022-10-16T00:15:43;13.90;99.90
19493;DHT22;9887;54.366;10.958;2022-10-16T00:18:11;13.90;99.90
19493;DHT22;9887;54.366;10.958;2022-10-16T00:20:41;13.80;99.90
19493;DHT22;9887;54.366;10.958;2022-10-16T00:23:10;13.70;99.90
19493;DHT22;9887;54.366;10.958;2022-10-16T00:25:38;13.70;99.90
19493;DHT22;9887;54.366;10.958;2022-10-16T00:28:05;13.60;99.90
19493;DHT22;9887;54.366;10.958;2022-10-16T00:30:33;13.60;99.90
19493;DHT22;9887;54.366;10.958;2022-10-16T00:33:01;13.40;99.90
19493;DHT22;9887;54.366;10.958;2022-10-16T00:35:30;13.60;99.90
19493;DHT22;9887;54.366;10.958;2022-10-16T00:37:58;13.30;99.90
19493;DHT22;9887;54.366;10.958;2022-10-16T00:40:27;13.40;99.90
19493;DHT22;9887;54.366;10.958;2022-10-16T00:42:55;13.30;99.90
19493;DHT22;9887;54.366;10.958;2022-10-16T00:45:23;13.20;99.90
19493;DHT22;9887;54.366;10.958;2022-10-16T00:47:52;13.30;99.90
19493;DHT22;9887;54.366;10.958;2022-10-16T00:50:26;13.10;99.90
19493;DHT22;9887;54.366;10.958;2022-10-16T00:52:55;13.20;99.90
19493;DHT22;9887;54.366;10.958;2022-10-16T00:55:24;13.10;99.90
19493;DHT22;9887;54.366;10.958;2022-10-16T00:57:54;13.20;99.90
19493;DHT22;9887;54.366;10.958;2022-10-16T01:00:25;13.20;99.90
19493;DHT22;9887;54.366;10.958;2022-10-16T01:02:54;13.10;99.90
19493;DHT22;9887;54.366;10.958;2022-10-16T01:05:22;13.00;99.90
19493;DHT22;9887;54.366;10.958;2022-10-16T01:07:57;13.10;99.90
19493;DHT22;9887;54.366;10.958;2022-10-16T01:10:31;13.10;99.90
19493;DHT22;9887;54.366;10.958;2022-10-16T01:13:07;13.10;99.90
19493;DHT22;9887;54.366;10.958;2022-10-16T01:15:40;13.00;99.90
19493;DHT22;9887;54.366;10.958;2022-10-16T01:18:14;13.00;99.90
19493;DHT22;9887;54.366;10.958;2022-10-16T01:20:47;13.00;99.90
19493;DHT22;9887;54.366;10.958;2022-10-16T01:23:36;13.00;99.90
19493;DHT22;9887;54.366;10.958;2022-10-16T01:26:18;12.90;99.90
19493;DHT22;9887;54.366;10.958;2022-10-16T01:28:53;13.00;99.90
19493;DHT22;9887;54.366;10.958;2022-10-16T01:31:24;13.00;99.90
19493;DHT22;9887;54.366;10.958;2022-10-16T01:33:59;12.90;99.90
19493;DHT22;9887;54.366;10.958;2022-10-16T01:36:33;12.90;99.90
19493;DHT22;9887;54.366;10.958;2022-10-16T01:39:03;12.90;99.90
19493;DHT22;9887;54.366;10.958;2022-10-16T01:41:34;12.90;99.90
19493;DHT22;9887;54.366;10.958;2022-10-16T01:44:06;12.90;99.90
19493;DHT22;9887;54.366;10.958;2022-10-16T01:46:37;12.90;99.90
19493;DHT22;9887;54.366;10.958;2022-10-16T01:49:06;12.90;99.90
19493;DHT22;9887;54.366;10.958;2022-10-16T01:51:35;12.80;99.90
19493;DHT22;9887;54.366;10.958;2022-10-16T01:54:07;12.80;99.90
19493;DHT22;9887;54.366;10.958;2022-10-16T01:56:36;12.80;99.90
19493;DHT22;9887;54.366;10.958;2022-10-16T01:59:07;12.80;99.90
19493;DHT22;9887;54.366;10.958;2022-10-16T02:01:39;12.80;99.90
19493;DHT22;9887;54.366;10.958;2022-10-16T02:04:13;12.80;99.90
19493;DHT22;9887;54.366;10.958;2022-10-16T02:06:42;12.80;99.90
19493;DHT22;9887;54.366;10.958;2022-10-16T02:09:10;12.80;99.90
19493;DHT22;9887;54.366;10.958;2022-10-16T02:11:38;12.70;99.90
19493;DHT22;9887;54.366;10.958;2022-10-16T02:14:07;12.70;99.90
19493;DHT22;9887;54.366;10.958;2022-10-16T02:16:37;12.70;99.90
19493;DHT22;9887;54.366;10.958;2022-10-16T02:19:06;12.70;99.90
19493;DHT22;9887;54.366;10.958;2022-10-16T02:21:39;12.70;99.90
19493;DHT22;9887;54.366;10.958;2022-10-16T02:24:13;12.70;99.90
19493;DHT22;9887;54.366;10.958;2022-10-16T02:26:54;12.70;99.90
19493;DHT22;9887;54.366;10.958;2022-10-16T02:29:26;12.70;99.90
19493;DHT22;9887;54.366;10.958;2022-10-16T02:31:57;12.80;99.90
19493;DHT22;9887;54.366;10.958;2022-10-16T02:34:27;12.70;99.90
19493;DHT22;9887;54.366;10.958;2022-10-16T02:36:56;12.80;99.90
19493;DHT22;9887;54.366;10.958;2022-10-16T02:39:26;12.80;99.90
19493;DHT22;9887;54.366;10.958;2022-10-16T02:41:54;12.80;99.90
19493;DHT22;9887;54.366;10.958;2022-10-16T02:44:22;12.80;99.90
19493;DHT22;9887;54.366;10.958;2022-10-16T02:46:51;12.80;99.90
19493;DHT22;9887;54.366;10.958;2022-10-16T02:49:19;12.80;99.90
19493;DHT22;9887;54.366;10.958;2022-10-16T02:51:47;12.90;99.90
19493;DHT22;9887;54.366;10.958;2022-10-16T02:54:15;12.90;99.90
19493;DHT22;9887;54.366;10.958;2022-10-16T02:56:42;12.80;99.90
19493;DHT22;9887;54.366;10.958;2022-10-16T02:59:10;12.80;99.90
19493;DHT22;9887;54.366;10.958;2022-10-16T03:01:38;12.90;99.90
19493;DHT22;9887;54.366;10.958;2022-10-16T03:04:07;12.90;99.90
19493;DHT22;9887;54.366;10.958;2022-10-16T03:06:36;12.90;99.90
19493;DHT22;9887;54.366;10.958;2022-10-16T03:09:04;12.90;99.90
19493;DHT22;9887;54.366;10.958;2022-10-16T03:11:32;12.90;99.90
19493;DHT22;9887;54.366;10.958;2022-10-16T03:14:00;12.80;99.90
19493;DHT22;9887;54.366;10.958;2022-10-16T03:16:28;12.90;99.90
19493;DHT22;9887;54.366;10.958;2022-10-16T03:18:55;12.90;99.90
19493;DHT22;9887;54.366;10.958;2022-10-16T03:21:25;12.90;99.90
19493;DHT22;9887;54.366;10.958;2022-10-16T03:23:52;12.80;99.90
19493;DHT22;9887;54.366;10.958;2022-10-16T03:26:20;12.80;99.90
19493;DHT22;9887;54.366;10.958;2022-10-16T03:28:48;12.80;99.90
19493;DHT22;9887;54.366;10.958;2022-10-16T03:31:16;12.80;99.90
19493;DHT22;9887;54.366;10.958;2022-10-16T03:33:44;12.80;99.90
19493;DHT22;9887;54.366;10.958;2022-10-16T03:36:11;12.80;99.90
19493;DHT22;9887;54.366;10.958;2022-10-16T03:38:41;12.80;99.90
19493;DHT22;9887;54.366;10.958;2022-10-16T03:41:08;12.80;99.90
19493;DHT22;9887;54.366;10.958;2022-10-16T03:43:36;12.80;99.90
19493;DHT22;9887;54.366;10.958;2022-10-16T03:46:04;12.70;99.90
19493;DHT22;9887;54.366;10.958;2022-10-16T03:48:32;12.70;99.90
19493;DHT22;9887;54.366;10.958;2022-10-16T03:51:00;12.70;99.90
19493;DHT22;9887;54.366;10.958;2022-10-16T03:53:28;12.70;99.90
19493;DHT22;9887;54.366;10.958;2022-10-16T03:55:57;12.60;99.90
19493;DHT22;9887;54.366;10.958;2022-10-16T03:58:25;12.60;99.90
19493;DHT22;9887;54.366;10.958;2022-10-16T04:00:53;12.60;99.90
19493;DHT22;9887;54.366;10.958;2022-10-16T04:03:20;12.60;99.90
19493;DHT22;9887;54.366;10.958;2022-10-16T04:05:49;12.60;99.90
19493;DHT22;9887;54.366;10.958;2022-10-16T04:08:17;12.60;99.90
19493;DHT22;9887;54.366;10.958;2022-10-16T04:10:45;12.50;99.90
19493;DHT22;9887;54.366;10.958;2022-10-16T04:13:15;12.50;99.90
19493;DHT22;9887;54.366;10.958;2022-10-16T04:15:44;12.50;99.90
19493;DHT22;9887;54.366;10.958;2022-10-16T04:18:12;12.50;99.90
19493;DHT22;9887;54.366;10.958;2022-10-16T04:20:40;12.40;99.90
19493;DHT22;9887;54.366;10.958;2022-10-16T04:23:08;12.40;99.90
19493;DHT22;9887;54.366;10.958;2022-10-16T04:25:36;12.40;99.90
19493;DHT22;9887;54.366;10.958;2022-10-16T04:28:04;12.40;99.90
19493;DHT22;9887;54.366;10.958;2022-10-16T04:30:33;12.40;99.90
19493;DHT22;9887;54.366;10.958;2022-10-16T04:33:01;12.40;99.90
19493;DHT22;9887;54.366;10.958;2022-10-16T04:35:29;12.40;99.90
19493;DHT22;9887;54.366;10.958;2022-10-16T04:37:57;12.40;99.90
19493;DHT22;9887;54.366;10.958;2022-10-16T04:40:25;12.40;99.90
19493;DHT22;9887;54.366;10.958;2022-10-16T04:42:52;12.40;99.90
19493;DHT22;9887;54.366;10.958;2022-10-16T04:45:20;12.30;99.90
19493;DHT22;9887;54.366;10.958;2022-10-16T04:47:49;12.30;99.90
19493;DHT22;9887;54.366;10.958;2022-10-16T04:50:17;12.30;99.90
19493;DHT22;9887;54.366;10.958;2022-10-16T04:53:00;12.20;99.90
19493;DHT22;9887;54.366;10.958;2022-10-16T04:55:28;12.20;99.90
19493;DHT22;9887;54.366;10.958;2022-10-16T04:57:56;12.20;99.90
19493;DHT22;9887;54.366;10.958;2022-10-16T05:00:24;12.20;99.90
19493;DHT22;9887;54.366;10.958;2022-10-16T05:02:53;12.20;99.90
19493;DHT22;9887;54.366;10.958;2022-10-16T05:05:21;12.20;99.90
19493;DHT22;9887;54.366;10.958;2022-10-16T05:07:49;12.10;99.90
19493;DHT22;9887;54.366;10.958;2022-10-16T05:10:17;12.10;99.90
19493;DHT22;9887;54.366;10.958;2022-10-16T05:12:46;12.10;99.90
19493;DHT22;9887;54.366;10.958;2022-10-16T05:15:13;12.10;99.90
19493;DHT22;9887;54.366;10.958;2022-10-16T05:17:41;12.10;99.90
19493;DHT22;9887;54.366;10.958;2022-10-16T05:20:12;12.00;99.90
19493;DHT22;9887;54.366;10.958;2022-10-16T05:22:40;12.00;99.90
19493;DHT22;9887;54.366;10.958;2022-10-16T05:25:08;12.00;99.90
19493;DHT22;9887;54.366;10.958;2022-10-16T05:27:35;12.00;99.90
19493;DHT22;9887;54.366;10.958;2022-10-16T05:30:04;12.00;99.90
19493;DHT22;9887;54.366;10.958;2022-10-16T05:32:37;12.00;99.90
19493;DHT22;9887;54.366;10.958;2022-10-16T05:35:05;12.00;99.90
19493;DHT22;9887;54.366;10.958;2022-10-16T05:37:39;12.00;99.90
19493;DHT22;9887;54.366;10.958;2022-10-16T05:40:08;12.00;99.90
19493;DHT22;9887;54.366;10.958;2022-10-16T05:42:36;12.00;99.90
19493;DHT22;9887;54.366;10.958;2022-10-16T05:45:06;12.00;99.90
19493;DHT22;9887;54.366;10.958;2022-10-16T05:47:34;12.00;99.90
19493;DHT22;9887;54.366;10.958;2022-10-16T05:50:02;12.00;99.90
19493;DHT22;9887;54.366;10.958;2022-10-16T05:52:30;12.00;99.90
19493;DHT22;9887;54.366;10.958;2022-10-16T05:54:59;12.00;99.90
19493;DHT22;9887;54.366;10.958;2022-10-16T05:57:27;12.00;99.90
19493;DHT22;9887;54.366;10.958;2022-10-16T05:59:55;12.00;99.90
19493;DHT22;9887;54.366;10.958;2022-10-16T06:02:23;12.00;99.90
19493;DHT22;9887;54.366;10.958;2022-10-16T06:04:51;12.00;99.90
19493;DHT22;9887;54.366;10.958;2022-10-16T06:07:21;12.00;99.90
19493;DHT22;9887;54.366;10.958;2022-10-16T06:09:50;11.90;99.90
19493;DHT22;9887;54.366;10.958;2022-10-16T06:12:19;11.90;99.90
19493;DHT22;9887;54.366;10.958;2022-10-16T06:14:48;11.90;99.90
19493;DHT22;9887;54.366;10.958;2022-10-16T06:17:16;11.90;99.90
19493;DHT22;9887;54.366;10.958;2022-10-16T06:19:43;11.90;99.90
19493;DHT22;9887;54.366;10.958;2022-10-16T06:22:11;11.90;99.90
19493;DHT22;9887;54.366;10.958;2022-10-16T06:24:39;11.90;99.90
19493;DHT22;9887;54.366;10.958;2022-10-16T06:27:07;11.90;99.90
19493;DHT22;9887;54.366;10.958;2022-10-16T06:29:36;11.90;99.90
19493;DHT22;9887;54.366;10.958;2022-10-16T06:32:04;11.90;99.90
19493;DHT22;9887;54.366;10.958;2022-10-16T06:34:32;11.90;99.90
19493;DHT22;9887;54.366;10.958;2022-10-16T06:37:01;11.90;99.90
19493;DHT22;9887;54.366;10.958;2022-10-16T06:39:28;11.80;99.90
19493;DHT22;9887;54.366;10.958;2022-10-16T06:41:56;11.90;99.90
19493;DHT22;9887;54.366;10.958;2022-10-16T06:44:36;11.80;99.90
19493;DHT22;9887;54.366;10.958;2022-10-16T06:47:04;11.80;99.90
19493;DHT22;9887;54.366;10.958;2022-10-16T06:49:33;11.80;99.90
19493;DHT22;9887;54.366;10.958;2022-10-16T06:52:00;11.80;99.90
19493;DHT22;9887;54.366;10.958;2022-10-16T06:54:29;11.80;99.90
19493;DHT22;9887;54.366;10.958;2022-10-16T06:57:07;11.80;99.90
19493;DHT22;9887;54.366;10.958;2022-10-16T06:59:36;11.80;99.90
19493;DHT22;9887;54.366;10.958;2022-10-16T07:02:04;11.80;99.90
19493;DHT22;9887;54.366;10.958;2022-10-16T07:04:33;11.70;99.90
19493;DHT22;9887;54.366;10.958;2022-10-16T07:07:02;11.70;99.90
19493;DHT22;9887;54.366;10.958;2022-10-16T07:09:35;11.70;99.90
19493;DHT22;9887;54.366;10.958;2022-10-16T07:12:03;11.70;99.90
19493;DHT22;9887;54.366;10.958;2022-10-16T07:14:31;11.70;99.90
19493;DHT22;9887;54.366;10.958;2022-10-16T07:17:00;11.70;99.90
19493;DHT22;9887;54.366;10.958;2022-10-16T07:19:28;11.80;99.90
19493;DHT22;9887;54.366;10.958;2022-10-16T07:22:00;11.80;99.90
19493;DHT22;9887;54.366;10.958;2022-10-16T07:24:27;11.90;99.90
19493;DHT22;9887;54.366;10.958;2022-10-16T07:26:55;11.90;99.90
19493;DHT22;9887;54.366;10.958;2022-10-16T07:29:23;12.00;99.90
19493;DHT22;9887;54.366;10.958;2022-10-16T07:31:51;12.10;99.90
19493;DHT22;9887;54.366;10.958;2022-10-16T07:34:20;12.20;99.90
19493;DHT22;9887;54.366;10.958;2022-10-16T07:36:49;12.30;99.90
19493;DHT22;9887;54.366;10.958;2022-10-16T07:39:17;12.50;99.90
19493;DHT22;9887;54.366;10.958;2022-10-16T07:41:45;12.50;99.90
19493;DHT22;9887;54.366;10.958;2022-10-16T07:44:13;12.60;99.90
19493;DHT22;9887;54.366;10.958;2022-10-16T07:46:41;12.60;99.90
19493;DHT22;9887;54.366;10.958;2022-10-16T07:49:09;12.70;99.90
19493;DHT22;9887;54.366;10.958;2022-10-16T07:51:38;12.70;99.90
19493;DHT22;9887;54.366;10.958;2022-10-16T07:54:07;12.80;99.90
19493;DHT22;9887;54.366;10.958;2022-10-16T07:56:35;12.80;99.90
19493;DHT22;9887;54.366;10.958;2022-10-16T07:59:08;12.80;99.90
19493;DHT22;9887;54.366;10.958;2022-10-16T08:01:36;12.90;99.90
19493;DHT22;9887;54.366;10.958;2022-10-16T08:04:05;12.90;99.90
19493;DHT22;9887;54.366;10.958;2022-10-16T08:06:35;13.00;99.90
19493;DHT22;9887;54.366;10.958;2022-10-16T08:09:05;13.00;99.90
19493;DHT22;9887;54.366;10.958;2022-10-16T08:11:33;13.00;99.90
19493;DHT22;9887;54.366;10.958;2022-10-16T08:14:01;13.10;99.90
19493;DHT22;9887;54.366;10.958;2022-10-16T08:16:29;13.10;99.90
19493;DHT22;9887;54.366;10.958;2022-10-16T08:18:57;13.30;99.90
19493;DHT22;9887;54.366;10.958;2022-10-16T08:21:25;13.40;99.90
19493;DHT22;9887;54.366;10.958;2022-10-16T08:23:53;13.60;99.90
19493;DHT22;9887;54.366;10.958;2022-10-16T08:26:25;13.70;99.90
19493;DHT22;9887;54.366;10.958;2022-10-16T08:28:54;13.70;99.90
19493;DHT22;9887;54.366;10.958;2022-10-16T08:31:22;13.70;99.90
19493;DHT22;9887;54.366;10.958;2022-10-16T08:33:50;13.70;99.90
19493;DHT22;9887;54.366;10.958;2022-10-16T08:36:19;13.80;99.90
19493;DHT22;9887;54.366;10.958;2022-10-16T08:38:48;13.90;99.90
19493;DHT22;9887;54.366;10.958;2022-10-16T08:41:27;14.00;99.90
19493;DHT22;9887;54.366;10.958;2022-10-16T08:44:24;14.10;99.90
19493;DHT22;9887;54.366;10.958;2022-10-16T08:47:04;14.20;99.90
19493;DHT22;9887;54.366;10.958;2022-10-16T08:49:37;14.20;99.90
19493;DHT22;9887;54.366;10.958;2022-10-16T08:52:10;14.30;99.90
19493;DHT22;9887;54.366;10.958;2022-10-16T08:54:43;14.40;99.90
19493;DHT22;9887;54.366;10.958;2022-10-16T08:57:16;14.40;99.90
19493;DHT22;9887;54.366;10.958;2022-10-16T08:59:49;14.50;99.90
19493;DHT22;9887;54.366;10.958;2022-10-16T09:02:24;14.50;99.90
19493;DHT22;9887;54.366;10.958;2022-10-16T09:05:11;14.50;99.90
19493;DHT22;9887;54.366;10.958;2022-10-16T09:07:49;14.70;99.90
19493;DHT22;9887;54.366;10.958;2022-10-16T09:10:27;14.70;99.90
19493;DHT22;9887;54.366;10.958;2022-10-16T09:13:02;14.80;99.90
19493;DHT22;9887;54.366;10.958;2022-10-16T09:15:44;14.90;99.90
19493;DHT22;9887;54.366;10.958;2022-10-16T09:18:20;15.00;99.90
19493;DHT22;9887;54.366;10.958;2022-10-16T09:20:59;15.10;99.90
19493;DHT22;9887;54.366;10.958;2022-10-16T09:23:30;15.20;99.90
19493;DHT22;9887;54.366;10.958;2022-10-16T09:25:58;15.30;99.90
19493;DHT22;9887;54.366;10.958;2022-10-16T09:28:28;15.40;99.90
19493;DHT22;9887;54.366;10.958;2022-10-16T09:30:56;15.50;99.90
19493;DHT22;9887;54.366;10.958;2022-10-16T09:33:27;15.60;99.90
19493;DHT22;9887;54.366;10.958;2022-10-16T09:35:57;15.60;99.90
19493;DHT22;9887;54.366;10.958;2022-10-16T09:38:27;15.70;99.90
19493;DHT22;9887;54.366;10.958;2022-10-16T09:40:56;15.80;99.90
19493;DHT22;9887;54.366;10.958;2022-10-16T09:43:35;16.00;99.90
19493;DHT22;9887;54.366;10.958;2022-10-16T09:46:08;16.00;99.90
19493;DHT22;9887;54.366;10.958;2022-10-16T09:48:39;16.20;99.90
19493;DHT22;9887;54.366;10.958;2022-10-16T09:51:19;16.30;99.90
19493;DHT22;9887;54.366;10.958;2022-10-16T09:53:47;16.40;99.90
19493;DHT22;9887;54.366;10.958;2022-10-16T09:56:22;16.50;99.90
19493;DHT22;9887;54.366;10.958;2022-10-16T09:58:52;16.50;99.90
19493;DHT22;9887;54.366;10.958;2022-10-16T10:01:22;16.40;99.90
19493;DHT22;9887;54.366;10.958;2022-10-16T10:03:50;16.60;99.90
19493;DHT22;9887;54.366;10.958;2022-10-16T10:06:29;16.60;99.90
19493;DHT22;9887;54.366;10.958;2022-10-16T10:09:00;16.90;99.90
19493;DHT22;9887;54.366;10.958;2022-10-16T10:11:53;16.40;99.90
19493;DHT22;9887;54.366;10.958;2022-10-16T10:14:25;16.90;99.90
19493;DHT22;9887;54.366;10.958;2022-10-16T10:17:11;16.60;99.90
19493;DHT22;9887;54.366;10.958;2022-10-16T10:19:41;16.60;99.90
19493;DHT22;9887;54.366;10.958;2022-10-16T10:22:23;16.50;99.90
19493;DHT22;9887;54.366;10.958;2022-10-16T10:24:55;16.70;99.90
19493;DHT22;9887;54.366;10.958;2022-10-16T10:27:30;16.60;99.90
19493;DHT22;9887;54.366;10.958;2022-10-16T10:30:06;16.60;99.90
19493;DHT22;9887;54.366;10.958;2022-10-16T10:32:40;16.60;99.90
19493;DHT22;9887;54.366;10.958;2022-10-16T10:35:16;16.90;99.90
19493;DHT22;9887;54.366;10.958;2022-10-16T10:37:59;16.90;99.90
19493;DHT22;9887;54.366;10.958;2022-10-16T10:40:40;16.90;99.90
19493;DHT22;9887;54.366;10.958;2022-10-16T10:43:19;16.90;99.90
19493;DHT22;9887;54.366;10.958;2022-10-16T10:45:53;17.00;99.90
19493;DHT22;9887;54.366;10.958;2022-10-16T10:48:44;17.00;99.90
19493;DHT22;9887;54.366;10.958;2022-10-16T10:51:20;16.90;99.90
19493;DHT22;9887;54.366;10.958;2022-10-16T10:53:55;17.00;99.90
19493;DHT22;9887;54.366;10.958;2022-10-16T10:56:41;17.00;99.90
19493;DHT22;9887;54.366;10.958;2022-10-16T10:59:37;17.00;99.90
19493;DHT22;9887;54.366;10.958;2022-10-16T11:02:15;17.00;99.90
19493;DHT22;9887;54.366;10.958;2022-10-16T11:05:05;17.10;99.90
19493;DHT22;9887;54.366;10.958;2022-10-16T11:07:39;17.40;99.90
19493;DHT22;9887;54.366;10.958;2022-10-16T11:10:13;17.50;99.90
19493;DHT22;9887;54.366;10.958;2022-10-16T11:12:45;17.50;99.90
19493;DHT22;9887;54.366;10.958;2022-10-16T11:15:18;17.50;99.90
19493;DHT22;9887;54.366;10.958;2022-10-16T11:17:53;17.50;99.90
19493;DHT22;9887;54.366;10.958;2022-10-16T11:20:24;17.50;99.90
19493;DHT22;9887;54.366;10.958;2022-10-16T11:22:56;17.60;99.90
19493;DHT22;9887;54.366;10.958;2022-10-16T11:25:27;17.70;99.90
19493;DHT22;9887;54.366;10.958;2022-10-16T11:28:06;17.80;99.90
19493;DHT22;9887;54.366;10.958;2022-10-16T11:30:41;17.90;99.90
19493;DHT22;9887;54.366;10.958;2022-10-16T11:33:25;18.00;99.90
19493;DHT22;9887;54.366;10.958;2022-10-16T11:35:59;18.30;99.90
19493;DHT22;9887;54.366;10.958;2022-10-16T11:38:32;18.20;99.90
19493;DHT22;9887;54.366;10.958;2022-10-16T11:41:08;18.40;99.90
19493;DHT22;9887;54.366;10.958;2022-10-16T11:43:41;18.40;99.90
19493;DHT22;9887;54.366;10.958;2022-10-16T11:46:12;18.40;99.90
19493;DHT22;9887;54.366;10.958;2022-10-16T11:48:49;18.30;99.90
19493;DHT22;9887;54.366;10.958;2022-10-16T11:51:25;18.20;99.90
19493;DHT22;9887;54.366;10.958;2022-10-16T11:54:02;18.10;99.90
19493;DHT22;9887;54.366;10.958;2022-10-16T11:56:32;18.00;99.90
19493;DHT22;9887;54.366;10.958;2022-10-16T11:59:06;18.00;99.90
19493;DHT22;9887;54.366;10.958;2022-10-16T12:01:40;17.90;99.90
19493;DHT22;9887;54.366;10.958;2022-10-16T12:04:21;17.80;99.90
19493;DHT22;9887;54.366;10.958;2022-10-16T12:06:52;17.60;99.90
19493;DHT22;9887;54.366;10.958;2022-10-16T12:09:26;17.50;99.90
19493;DHT22;9887;54.366;10.958;2022-10-16T12:11:56;17.40;99.90
19493;DHT22;9887;54.366;10.958;2022-10-16T12:14:36;17.30;99.90
19493;DHT22;9887;54.366;10.958;2022-10-16T12:17:27;17.20;99.90
19493;DHT22;9887;54.366;10.958;2022-10-16T12:20:29;17.20;99.90
19493;DHT22;9887;54.366;10.958;2022-10-16T12:23:00;17.20;99.90
19493;DHT22;9887;54.366;10.958;2022-10-16T12:25:31;17.10;99.90
19493;DHT22;9887;54.366;10.958;2022-10-16T12:28:04;17.10;99.90
19493;DHT22;9887;54.366;10.958;2022-10-16T12:30:35;17.10;99.90
19493;DHT22;9887;54.366;10.958;2022-10-16T12:33:05;17.20;99.90
19493;DHT22;9887;54.366;10.958;2022-10-16T12:35:43;17.30;99.90
19493;DHT22;9887;54.366;10.958;2022-10-16T12:38:17;17.40;99.90
19493;DHT22;9887;54.366;10.958;2022-10-16T12:40:47;17.50;99.90
19493;DHT22;9887;54.366;10.958;2022-10-16T12:43:37;17.50;99.90
19493;DHT22;9887;54.366;10.958;2022-10-16T12:46:22;17.50;99.90
19493;DHT22;9887;54.366;10.958;2022-10-16T12:48:51;17.50;99.90
19493;DHT22;9887;54.366;10.958;2022-10-16T12:51:36;17.40;99.90
19493;DHT22;9887;54.366;10.958;2022-10-16T12:54:12;17.40;99.90
19493;DHT22;9887;54.366;10.958;2022-10-16T12:56:46;17.40;99.90
19493;DHT22;9887;54.366;10.958;2022-10-16T12:59:24;17.30;99.90
19493;DHT22;9887;54.366;10.958;2022-10-16T13:02:11;17.10;99.90
19493;DHT22;9887;54.366;10.958;2022-10-16T13:04:55;17.00;99.90
19493;DHT22;9887;54.366;10.958;2022-10-16T13:10:25;16.80;99.90
19493;DHT22;9887;54.366;10.958;2022-10-16T13:13:13;16.80;99.90
19493;DHT22;9887;54.366;10.958;2022-10-16T13:16:05;16.70;99.90
19493;DHT22;9887;54.366;10.958;2022-10-16T13:18:41;16.80;99.90
19493;DHT22;9887;54.366;10.958;2022-10-16T13:21:21;16.90;99.90
19493;DHT22;9887;54.366;10.958;2022-10-16T13:23:58;17.00;99.90
19493;DHT22;9887;54.366;10.958;2022-10-16T13:26:35;17.10;99.90
19493;DHT22;9887;54.366;10.958;2022-10-16T13:29:06;17.20;99.90
19493;DHT22;9887;54.366;10.958;2022-10-16T13:31:38;17.20;99.90
19493;DHT22;9887;54.366;10.958;2022-10-16T13:34:12;17.20;99.90
19493;DHT22;9887;54.366;10.958;2022-10-16T13:36:46;17.20;99.90
19493;DHT22;9887;54.366;10.958;2022-10-16T13:39:23;17.20;99.90
19493;DHT22;9887;54.366;10.958;2022-10-16T13:42:01;17.10;99.90
19493;DHT22;9887;54.366;10.958;2022-10-16T13:44:38;17.20;99.90
19493;DHT22;9887;54.366;10.958;2022-10-16T13:47:16;17.20;99.90
19493;DHT22;9887;54.366;10.958;2022-10-16T13:49:44;17.20;99.90
19493;DHT22;9887;54.366;10.958;2022-10-16T13:52:18;17.20;99.90
19493;DHT22;9887;54.366;10.958;2022-10-16T13:54:47;17.20;99.90
19493;DHT22;9887;54.366;10.958;2022-10-16T13:57:16;17.10;99.90
19493;DHT22;9887;54.366;10.958;2022-10-16T13:59:54;17.10;99.90
19493;DHT22;9887;54.366;10.958;2022-10-16T14:02:26;17.10;99.90
19493;DHT22;9887;54.366;10.958;2022-10-16T14:04:56;17.10;99.90
19493;DHT22;9887;54.366;10.958;2022-10-16T14:07:26;17.10;99.90
19493;DHT22;9887;54.366;10.958;2022-10-16T14:10:00;17.20;99.90
19493;DHT22;9887;54.366;10.958;2022-10-16T14:12:29;17.20;99.90
19493;DHT22;9887;54.366;10.958;2022-10-16T14:14:58;17.20;99.90
19493;DHT22;9887;54.366;10.958;2022-10-16T14:17:29;17.10;99.90
19493;DHT22;9887;54.366;10.958;2022-10-16T14:19:58;17.10;99.90
19493;DHT22;9887;54.366;10.958;2022-10-16T14:22:33;17.00;99.90
19493;DHT22;9887;54.366;10.958;2022-10-16T14:25:26;17.00;99.90
19493;DHT22;9887;54.366;10.958;2022-10-16T14:28:03;17.00;99.90
19493;DHT22;9887;54.366;10.958;2022-10-16T14:30:33;17.00;99.90
19493;DHT22;9887;54.366;10.958;2022-10-16T14:33:03;16.90;99.90
19493;DHT22;9887;54.366;10.958;2022-10-16T14:35:33;16.90;99.90
19493;DHT22;9887;54.366;10.958;2022-10-16T14:38:02;16.80;99.90
19493;DHT22;9887;54.366;10.958;2022-10-16T14:40:33;16.80;99.90
19493;DHT22;9887;54.366;10.958;2022-10-16T14:43:03;16.80;99.90
19493;DHT22;9887;54.366;10.958;2022-10-16T14:45:33;16.70;99.90
19493;DHT22;9887;54.366;10.958;2022-10-16T14:48:05;16.70;99.90
19493;DHT22;9887;54.366;10.958;2022-10-16T14:50:33;16.70;99.90
19493;DHT22;9887;54.366;10.958;2022-10-16T14:53:01;16.70;99.90
19493;DHT22;9887;54.366;10.958;2022-10-16T14:55:29;16.70;99.90
19493;DHT22;9887;54.366;10.958;2022-10-16T14:57:58;16.60;99.90
19493;DHT22;9887;54.366;10.958;2022-10-16T15:00:26;16.60;99.90
19493;DHT22;9887;54.366;10.958;2022-10-16T15:02:54;16.50;99.90
19493;DHT22;9887;54.366;10.958;2022-10-16T15:05:24;16.40;99.90
19493;DHT22;9887;54.366;10.958;2022-10-16T15:07:53;16.20;99.90
19493;DHT22;9887;54.366;10.958;2022-10-16T15:10:23;16.20;99.90
19493;DHT22;9887;54.366;10.958;2022-10-16T15:12:50;16.20;99.90
19493;DHT22;9887;54.366;10.958;2022-10-16T15:15:33;16.10;99.90
19493;DHT22;9887;54.366;10.958;2022-10-16T15:18:02;16.10;99.90
19493;DHT22;9887;54.366;10.958;2022-10-16T15:20:33;16.00;99.90
19493;DHT22;9887;54.366;10.958;2022-10-16T15:23:03;16.00;99.90
19493;DHT22;9887;54.366;10.958;2022-10-16T15:25:35;15.90;99.90
19493;DHT22;9887;54.366;10.958;2022-10-16T15:28:04;15.90;99.90
19493;DHT22;9887;54.366;10.958;2022-10-16T15:30:35;15.90;99.90
19493;DHT22;9887;54.366;10.958;2022-10-16T15:33:04;15.80;99.90
19493;DHT22;9887;54.366;10.958;2022-10-16T15:35:32;15.80;99.90
19493;DHT22;9887;54.366;10.958;2022-10-16T15:38:00;15.80;99.90
19493;DHT22;9887;54.366;10.958;2022-10-16T15:40:28;15.70;99.90
19493;DHT22;9887;54.366;10.958;2022-10-16T15:42:56;15.70;99.90
19493;DHT22;9887;54.366;10.958;2022-10-16T15:45:24;15.70;99.90
19493;DHT22;9887;54.366;10.958;2022-10-16T15:47:53;15.60;99.90
19493;DHT22;9887;54.366;10.958;2022-10-16T15:50:21;15.60;99.90
19493;DHT22;9887;54.366;10.958;2022-10-16T15:52:49;15.60;99.90
19493;DHT22;9887;54.366;10.958;2022-10-16T15:55:18;15.50;99.90
19493;DHT22;9887;54.366;10.958;2022-10-16T15:57:46;15.50;99.90
19493;DHT22;9887;54.366;10.958;2022-10-16T16:00:15;15.40;99.90